Latest METARs, TAFs and NOTAMs for MMTP


---------------------------------------------------------------------------
	(OBSERVATIONS)
MMTP 191145Z 00000KT 10SM  SCT040 BKN200 24/24 A2989  RMK SLP145
    54000 956 8/407 HZY=
MMTP 191040Z 00000KT 10SM  SCT040 BKN200 24/24 A2988 RMK 8/407=
MMTP 190940Z 00000KT 10SM  SCT040 BKN200 24/24 A2989 RMK 8/407=
---------------------------------------------------------------------------
	(TERMINAL AREA FORECAST)
MMTP 191103Z 1912/2018 00000KT P6SM SCT030 BKN120
    FM191800 24010KT P6SM SCT020 BKN080
    FM200200 00000KT P6SM SCT020 BKN250
    FM201700 24010KT P6SM SCT020 BKN080=
---------------------------------------------------------------------------
	(NOTAMS)


MMTP A3338/18 RWY 05/23 WIP MEN AND EQUIPMENT WILL BE REMOVED
    FOR ACFT OPS. 19 JUN 11:00 2018 UNTIL 22 JUN 23:59 2018.
    CREATED: 19 JUN 01:55 2018

---------------------------------------------------------------------------